Terminal Aerodrome Forecast
Issued by NWS

Home | Current Version | Previous Version | Graphics & Text | Print | Product List | Glossary On
Versions: 1 2 3 4 5 6 7 8 9 10 11 12 13 14 15 16 17 18 19 20 21 22 23 24 25
000
FTUS43 KBIS 290500
TAFMOT
TAF
KMOT 290524Z 2906/3006 VRB03KT P6SM SCT018 OVC023
      TEMPO 2906/2910 BKN018 OVC025
     FM291000 14004KT 3SM BR SCT200
     FM291400 17096KT P6SM BKN100
     FM292100 23010KT P6SM SCT040 BKN080
     FM300300 28008KT P6SM SCT025 BKN035 OVC080=

USA.gov is the U.S. government's official web portal to all federal, state and local government web resources and services.